Latest Weather Observations for Rhyll

IDV60801

Issued at 11:02 pm EST Monday 6 July 2020 (issued every 10 minutes, with the page automatically refreshed every 10 minutes)

About weather observations | Map of weather stations | Latest weather observations for VIC | Other Formats
Station Details ID: 086373 Name: RHYLL Lat: -38.46 Lon: 145.31 Height: 13.4 m
Data from the previous 72 hours. | See also: Recent months at Rhyll
Date/Time
EST
Temp
°C
App
Temp
°C
Dew
Point
°C
Rel
Hum
%
Delta-T
°C
Wind Press
QNH
hPa
Press
MSL
hPa
Rain since
9am
mm
Dir  Spd
km/h
Gust
km/h
Spd
kts
Gust
kts
06/11:00pm 10.5 9.0 9.1 91 0.7 W 7 15 4 8 1031.5 1031.5 0.6
06/10:30pm 10.0 8.5 8.3 89 0.8 WNW 6 7 3 4 1031.0 1031.0 0.6
06/10:00pm 10.5 8.9 8.8 89 0.8 WSW 7 11 4 6 1031.4 1031.4 0.6
06/09:30pm 10.6 9.1 8.4 86 1.1 WSW 6 11 3 6 1031.2 1031.2 0.6
06/09:00pm 10.8 9.2 8.6 86 1.1 WSW 7 11 4 6 1031.2 1031.2 0.6
06/08:30pm 10.8 9.7 8.4 85 1.2 W 4 7 2 4 1031.3 1031.3 0.6
06/08:00pm 11.3 9.8 8.3 82 1.5 SW 6 9 3 5 1031.3 1031.3 0.6
06/07:30pm 11.9 9.8 8.4 79 1.7 SW 9 15 5 8 1031.4 1031.4 0.6
06/07:00pm 12.1 9.9 7.8 75 2.1 SW 9 17 5 9 1031.2 1031.2 0.6
06/06:30pm 12.0 10.0 8.7 80 1.6 SW 9 17 5 9 1031.0 1031.0 0.6
06/06:00pm 12.5 10.2 7.4 71 2.5 SW 9 17 5 9 1030.7 1030.7 0.6
06/05:30pm 12.3 10.7 8.0 75 2.1 SW 6 11 3 6 1030.5 1030.5 0.6
06/05:00pm 12.2 10.9 7.5 73 2.3 W 4 9 2 5 1030.3 1030.3 0.6
06/04:30pm 12.4 10.4 7.3 71 2.5 WSW 7 13 4 7 1030.1 1030.1 0.6
06/04:00pm 12.7 9.5 6.7 67 2.8 SW 13 20 7 11 1030.1 1030.1 0.6
06/03:30pm 12.9 10.1 6.9 67 2.9 SW 11 19 6 10 1030.0 1030.0 0.6
06/03:00pm 12.9 9.7 6.9 67 2.9 WSW 13 22 7 12 1029.9 1029.9 0.6
06/02:30pm 13.1 11.4 8.4 73 2.3 W 7 17 4 9 1029.8 1029.8 0.6
06/02:00pm 13.1 11.2 9.0 76 2.1 WSW 9 15 5 8 1029.8 1029.8 0.6
06/01:30pm 13.2 10.8 8.7 74 2.3 WSW 11 20 6 11 1030.0 1030.0 0.6
06/01:00pm 13.6 11.3 7.6 67 2.9 WSW 9 20 5 11 1030.0 1030.0 0.6
06/12:30pm 13.3 11.5 9.5 78 1.9 WSW 9 19 5 10 1030.3 1030.3 0.6
06/12:00pm 13.3 11.5 9.5 78 1.9 WSW 9 20 5 11 1030.5 1030.5 0.6
06/11:30am 12.8 11.0 9.6 81 1.6 WSW 9 17 5 9 1030.9 1030.9 0.6
06/11:00am 12.7 10.9 9.5 81 1.6 WSW 9 20 5 11 1031.2 1031.2 0.4
06/10:30am 11.2 10.5 10.1 93 0.6 NNW 4 7 2 4 1031.3 1031.3 0.4
06/10:00am 10.6 10.1 9.4 92 0.6 N 2 6 1 3 1031.3 1031.3 0.4
06/09:30am 10.7 9.9 9.5 92 0.6 NNW 4 7 2 4 1031.1 1031.1 0.2
06/09:00am 10.2 9.2 8.8 91 0.7 NW 4 6 2 3 1031.1 1031.1 1.2
06/08:30am 10.1 8.5 8.2 88 0.9 W 6 11 3 6 1030.9 1030.9 1.2
06/08:00am 10.0 8.4 7.8 86 1.0 W 6 7 3 4 1030.5 1030.5 1.0
06/07:30am 9.8 8.0 7.2 84 1.2 WSW 6 7 3 4 1030.2 1030.2 1.0
06/07:00am 10.4 7.4 7.6 83 1.3 SW 13 22 7 12 1030.0 1030.0 1.0
06/06:30am 11.2 9.3 7.7 79 1.7 WSW 7 11 4 6 1029.5 1029.5 1.0
06/06:00am 11.0 9.0 7.1 77 1.8 SW 7 13 4 7 1029.1 1029.1 0.8
06/05:30am 10.2 8.3 6.7 79 1.6 WSW 6 9 3 5 1028.9 1028.9 0.8
06/05:00am 10.0 7.9 6.5 79 1.6 WSW 7 11 4 6 1028.8 1028.8 0.8
06/04:30am 10.1 7.9 6.4 78 1.7 WSW 7 11 4 6 1028.8 1028.8 0.8
06/04:00am 10.3 7.8 6.6 78 1.7 SW 9 13 5 7 1028.8 1028.8 0.8
06/03:30am 10.3 7.8 6.5 77 1.8 SW 9 13 5 7 1028.9 1028.9 0.8
06/03:00am 10.1 8.0 6.8 80 1.5 WSW 7 9 4 5 1028.9 1028.9 0.8
06/02:30am 10.3 8.3 7.0 80 1.6 SW 7 9 4 5 1028.9 1028.9 0.8
06/02:00am 10.8 9.0 7.9 82 1.4 SW 7 13 4 7 1028.8 1028.8 0.8
06/01:30am 10.3 8.5 8.1 86 1.1 SW 7 9 4 5 1028.7 1028.7 0.8
06/01:00am 10.3 8.6 8.4 88 0.9 WSW 7 13 4 7 1028.7 1028.7 0.8
06/12:30am 10.1 8.5 8.2 88 0.9 W 6 11 3 6 1028.8 1028.8 0.8
06/12:00am 9.8 8.0 7.9 88 0.9 SW 7 13 4 7 1028.6 1028.6 0.8
 
Date/Time
EST
Temp
°C
App
Temp
°C
Dew
Point
°C
Rel
Hum
%
Delta-T
°C
Wind Press
QNH
hPa
Press
MSL
hPa
Rain since
9am
mm
Dir  Spd
km/h
Gust
km/h
Spd
kts
Gust
kts
05/11:30pm 10.2 8.2 8.5 89 0.8 SW 9 17 5 9 1028.9 1028.9 0.6
05/11:00pm 10.3 8.8 8.4 88 0.9 WSW 6 13 3 7 1028.7 1028.7 0.6
05/10:30pm 10.3 8.6 8.2 87 1.0 W 7 13 4 7 1028.7 1028.7 0.6
05/10:00pm 10.3 8.6 8.2 87 1.0 WSW 7 17 4 9 1028.6 1028.6 0.6
05/09:30pm 10.1 8.4 8.4 89 0.8 SW 7 13 4 7 1028.5 1028.5 0.6
05/09:00pm 10.4 8.4 8.7 89 0.8 WSW 9 15 5 8 1028.2 1028.2 0.6
05/08:30pm 10.3 9.3 8.7 90 0.8 WSW 4 9 2 5 1028.0 1028.0 0.6
05/08:00pm 10.4 9.0 8.8 90 0.8 WSW 6 11 3 6 1027.8 1027.8 0.6
05/07:30pm 10.2 8.5 8.3 88 0.9 SW 7 15 4 8 1027.6 1027.6 0.4
05/07:00pm 10.4 8.4 8.7 89 0.8 SW 9 17 5 9 1027.5 1027.5 0.4
05/06:30pm 10.4 9.0 8.7 89 0.8 WSW 6 13 3 7 1027.3 1027.3 0.0
05/06:00pm 10.5 8.9 8.8 89 0.8 WSW 7 13 4 7 1026.9 1026.9 0.0
05/05:30pm 10.8 8.8 8.6 86 1.1 W 9 13 5 7 1026.6 1026.6 0.0
05/05:00pm 10.8 8.7 8.2 84 1.3 WSW 9 13 5 7 1026.4 1026.4 0.0
05/04:30pm 11.0 9.3 8.4 84 1.3 WSW 7 11 4 6 1026.4 1026.4 0.0
05/04:00pm 11.1 9.4 8.5 84 1.3 WSW 7 13 4 7 1026.4 1026.4 0.0
05/03:30pm 11.1 9.4 8.5 84 1.3 SW 7 13 4 7 1026.5 1026.5 0.0
05/03:00pm 12.1 10.0 8.2 77 1.9 WSW 9 15 5 8 1026.5 1026.5 0.0
05/02:30pm 12.2 9.2 7.9 75 2.1 WSW 13 20 7 11 1026.2 1026.2 0.0
05/02:00pm 12.7 10.2 8.0 73 2.3 WSW 11 19 6 10 1026.3 1026.3 0.0
05/01:30pm 13.3 9.5 7.7 69 2.8 SW 17 26 9 14 1026.3 1026.3 0.0
05/01:00pm 12.7 8.6 6.3 65 3.0 SW 17 30 9 16 1026.5 1026.5 0.0
05/12:30pm 12.8 8.3 5.9 63 3.2 SW 19 30 10 16 1026.4 1026.4 0.0
05/12:00pm 12.3 7.9 6.6 68 2.7 SW 19 30 10 16 1026.6 1026.6 0.0
05/11:30am 12.5 9.2 6.5 67 2.9 SW 13 20 7 11 1026.7 1026.7 0.0
05/11:00am 12.4 8.9 7.1 70 2.5 SW 15 30 8 16 1027.1 1027.1 0.0
05/10:30am 12.5 9.2 8.0 74 2.2 SW 15 24 8 13 1027.0 1027.0 0.0
05/10:00am 12.0 9.4 7.9 76 2.0 SW 11 20 6 11 1026.7 1026.7 0.0
05/09:30am 11.9 8.7 8.6 80 1.6 SW 15 22 8 12 1026.4 1026.4 0.0
05/09:00am 10.5 8.9 8.6 88 0.9 W 7 13 4 7 1026.2 1026.2 7.0
05/08:30am 9.9 8.3 8.2 89 0.8 WNW 6 7 3 4 1025.9 1025.9 7.0
05/08:00am 9.8 8.0 8.1 89 0.8 W 7 11 4 6 1025.5 1025.5 7.0
05/07:30am 9.9 8.1 8.0 88 0.9 W 7 13 4 7 1025.3 1025.3 7.0
05/07:00am 10.3 8.2 8.2 87 1.0 W 9 15 5 8 1025.0 1025.0 7.0
05/06:30am 10.6 8.6 8.7 88 0.9 WSW 9 13 5 7 1024.7 1024.7 7.0
05/06:00am 10.6 8.7 9.0 90 0.8 W 9 17 5 9 1024.4 1024.4 7.0
05/05:30am 10.4 8.0 8.8 90 0.8 SW 11 19 6 10 1024.2 1024.2 6.8
05/05:00am 10.6 7.9 8.9 89 0.8 WSW 13 20 7 11 1023.9 1023.9 6.6
05/04:30am 10.8 8.9 9.2 90 0.8 WSW 9 17 5 9 1023.9 1023.9 6.2
05/04:00am 10.9 9.0 9.0 88 0.9 WSW 9 15 5 8 1024.0 1024.0 4.8
05/03:30am 11.1 9.1 8.7 85 1.2 WSW 9 17 5 9 1024.0 1024.0 4.6
05/03:00am 10.9 8.7 8.0 82 1.4 WSW 9 15 5 8 1024.1 1024.1 4.6
05/02:30am 11.3 9.2 8.3 82 1.5 WSW 9 15 5 8 1024.3 1024.3 4.6
05/02:00am 11.4 8.4 7.5 77 1.9 SW 13 20 7 11 1024.1 1024.1 4.6
05/01:30am 11.6 9.1 8.3 80 1.6 SW 11 19 6 10 1024.1 1024.1 4.6
05/01:00am 11.8 8.5 8.1 78 1.8 SW 15 26 8 14 1024.0 1024.0 4.6
05/12:30am 11.5 8.3 8.4 81 1.5 SW 15 30 8 16 1024.2 1024.2 4.6
05/12:00am 11.5 8.5 9.2 86 1.1 WSW 15 22 8 12 1024.2 1024.2 4.6
 
Date/Time
EST
Temp
°C
App
Temp
°C
Dew
Point
°C
Rel
Hum
%
Delta-T
°C
Wind Press
QNH
hPa
Press
MSL
hPa
Rain since
9am
mm
Dir  Spd
km/h
Gust
km/h
Spd
kts
Gust
kts
04/11:30pm 11.4 8.1 9.5 88 1.0 SW 17 30 9 16 1024.2 1024.2 4.6
04/11:00pm 11.7 8.7 9.1 84 1.3 SW 15 26 8 14 1024.1 1024.1 4.6
04/10:30pm 11.9 8.4 8.7 81 1.6 SW 17 26 9 14 1024.0 1024.0 4.6
04/10:00pm 11.7 8.2 8.7 82 1.5 SW 17 28 9 15 1023.8 1023.8 4.6
04/09:30pm 11.7 8.3 9.3 85 1.2 SW 17 30 9 16 1023.7 1023.7 4.6
04/09:00pm 11.8 8.0 9.2 84 1.3 SW 19 30 10 16 1023.4 1023.4 4.6
04/08:30pm 11.6 8.2 9.0 84 1.3 SW 17 24 9 13 1023.4 1023.4 4.6
04/08:00pm 11.9 8.2 9.3 84 1.3 SW 19 33 10 18 1023.3 1023.3 4.6
04/07:30pm 11.9 9.3 9.5 85 1.2 SW 13 24 7 13 1023.2 1023.2 4.6
04/07:00pm 11.8 8.4 9.2 84 1.3 SW 17 28 9 15 1022.9 1022.9 4.4
04/06:30pm 11.4 7.5 9.3 87 1.1 SW 20 33 11 18 1022.6 1022.6 4.4
04/06:00pm 11.3 8.1 9.9 91 0.7 WSW 17 28 9 15 1022.3 1022.3 4.4
04/05:30pm 11.5 7.9 9.9 90 0.8 WSW 19 28 10 15 1022.2 1022.2 4.2
04/05:00pm 11.6 8.8 10.0 90 0.8 WSW 15 24 8 13 1022.0 1022.0 4.2
04/04:30pm 11.8 8.6 10.0 89 0.9 WSW 17 32 9 17 1021.9 1021.9 3.8
04/04:00pm 11.6 8.0 10.0 90 0.8 WSW 19 32 10 17 1021.7 1021.7 3.8
04/03:30pm 11.9 8.4 10.3 90 0.8 WSW 19 32 10 17 1021.7 1021.7 3.6
04/03:00pm 11.9 9.1 10.1 89 0.9 W 15 32 8 17 1021.6 1021.6 3.0
04/02:30pm 12.0 8.8 9.9 87 1.1 WSW 17 28 9 15 1021.5 1021.5 2.8
04/02:00pm 12.4 9.5 9.8 84 1.3 WSW 15 28 8 15 1021.5 1021.5 2.6
04/01:30pm 12.0 9.5 9.7 86 1.2 W 13 28 7 15 1021.5 1021.5 2.2
04/01:00pm 12.7 11.2 10.4 86 1.2 W 9 17 5 9 1021.6 1021.6 2.0
04/12:30pm 12.7 10.6 11.1 90 0.8 W 13 24 7 13 1021.9 1021.9 2.0
04/12:00pm 11.3 8.9 10.2 93 0.6 WNW 13 22 7 12 1022.4 1022.4 2.0
04/11:30am 10.7 8.9 9.6 93 0.6 WNW 9 20 5 11 1022.6 1022.6 2.0
04/11:00am 9.8 8.2 8.7 93 0.5 NW 7 13 4 7 1022.7 1022.7 0.8
04/10:30am 9.5 7.4 8.4 93 0.5 WNW 9 17 5 9 1022.7 1022.7 0.6
04/10:00am 8.9 7.1 7.8 93 0.5 NW 7 13 4 7 1022.6 1022.6 0.6
04/09:30am 8.7 6.8 7.6 93 0.5 NW 7 17 4 9 1022.6 1022.6 0.4
04/09:00am 8.3 6.3 7.1 92 0.6 NW 7 15 4 8 1022.5 1022.5 15.8
04/08:30am 8.1 5.7 6.9 92 0.6 NW 9 19 5 10 1022.3 1022.3 15.6
04/08:00am 8.1 6.2 6.9 92 0.6 NW 6 13 3 7 1022.4 1022.4 15.4
04/07:30am 8.0 5.9 6.6 91 0.6 WNW 7 15 4 8 1022.2 1022.2 15.4
04/07:00am 8.0 5.5 6.5 90 0.7 NW 9 15 5 8 1022.3 1022.3 15.2
04/06:30am 8.0 6.0 6.3 89 0.8 WNW 6 13 3 7 1022.1 1022.1 15.0
04/06:00am 8.2 6.3 6.5 89 0.8 WNW 6 9 3 5 1021.9 1021.9 14.6
04/05:30am 8.3 6.3 6.1 86 1.0 WNW 6 11 3 6 1021.9 1021.9 14.4
04/05:00am 7.8 5.4 5.3 84 1.1 WNW 7 11 4 6 1022.0 1022.0 14.4
04/04:30am 8.0 5.6 5.1 82 1.3 W 7 15 4 8 1022.2 1022.2 14.4
04/04:00am 8.4 5.9 4.8 78 1.6 WSW 7 11 4 6 1022.1 1022.1 14.2
04/03:30am 8.5 5.9 3.4 70 2.2 W 6 13 3 7 1022.2 1022.2 14.2
04/03:00am 9.1 5.1 3.1 66 2.6 WSW 13 20 7 11 1022.4 1022.4 14.2
04/02:30am 8.9 5.2 2.3 63 2.8 WSW 11 19 6 10 1022.2 1022.2 14.2
04/02:00am 8.7 4.9 3.7 71 2.2 SW 13 22 7 12 1022.0 1022.0 14.2
04/01:30am 9.3 4.5 4.5 72 2.1 SW 19 32 10 17 1022.0 1022.0 14.2
04/01:00am 8.7 5.0 4.5 75 1.8 SW 13 20 7 11 1021.7 1021.7 14.2
04/12:30am 8.4 5.3 5.7 83 1.2 SW 11 19 6 10 1022.0 1022.0 14.2
04/12:00am 9.8 6.0 4.0 67 2.5 SW 13 24 7 13 1021.9 1021.9 13.4
 
Date/Time
EST
Temp
°C
App
Temp
°C
Dew
Point
°C
Rel
Hum
%
Delta-T
°C
Wind Press
QNH
hPa
Press
MSL
hPa
Rain since
9am
mm
Dir  Spd
km/h
Gust
km/h
Spd
kts
Gust
kts
03/11:30pm 9.2 5.9 4.6 73 2.0 SW 11 28 6 15 1021.7 1021.7 13.4

Other formats

Comma delimited format used in spreadsheet applications
http://www.bom.gov.au/fwo/IDV60801/IDV60801.94892.axf

JavaScript Object Notation format (JSON) in row-major order
http://www.bom.gov.au/fwo/IDV60801/IDV60801.94892.json

Data quality

Most of these data are generated automatically and are frequently updated. Quality checks on data are not normally performed. It is possible for incorrect values to appear. Refer to information at About Latest Weather Observations and please check the disclaimer before using these data.